Time,TemperatureF,DewpointF,PressureIn,WindDirection,WindDirectionDegrees,WindSpeedMPH,WindSpeedGustMPH,Humidity,HourlyPrecipIn,Conditions,Clouds,dailyrainin,SolarRadiationWatts/m^2,SoftwareType,DateUTC
2013-11-16 00:04:00,58.1,49.0,29.68,SSW,200,4.0,7.0,73,0.00,,,0.00,0,weatherlink.com 1.10,2013-11-16 07:04:00,
2013-11-16 00:19:00,58.0,49.0,29.68,SSW,198,5.0,7.0,73,0.00,,,0.00,0,weatherlink.com 1.10,2013-11-16 07:19:00,
2013-11-16 00:34:00,58.0,50.0,29.67,SSW,194,0.0,6.0,74,0.00,,,0.00,0,weatherlink.com 1.10,2013-11-16 07:34:00,
2013-11-16 00:49:00,58.0,50.0,29.67,SSW,194,0.0,7.0,74,0.00,,,0.00,0,weatherlink.com 1.10,2013-11-16 07:49:00,
2013-11-16 01:04:00,58.8,49.0,29.67,SSW,194,5.0,8.0,71,0.00,,,0.00,0,weatherlink.com 1.10,2013-11-16 08:04:00,
2013-11-16 01:19:00,58.4,49.0,29.66,SSW,194,4.0,7.0,72,0.00,,,0.00,0,weatherlink.com 1.10,2013-11-16 08:19:00,
2013-11-16 01:34:00,58.4,49.0,29.66,SSW,192,4.0,6.0,72,0.00,,,0.00,0,weatherlink.com 1.10,2013-11-16 08:34:00,
2013-11-16 01:49:00,59.0,49.0,29.65,SSW,192,5.0,8.0,69,0.00,,,0.00,0,weatherlink.com 1.10,2013-11-16 08:49:00,
2013-11-16 02:04:00,59.4,49.0,29.65,South,191,4.0,12.0,68,0.00,,,0.00,0,weatherlink.com 1.10,2013-11-16 09:04:00,
2013-11-16 02:19:00,59.0,49.0,29.65,South,190,5.0,8.0,69,0.00,,,0.00,0,weatherlink.com 1.10,2013-11-16 09:19:00,
2013-11-16 02:34:00,59.1,49.0,29.65,South,190,5.0,10.0,69,0.00,,,0.00,0,weatherlink.com 1.10,2013-11-16 09:34:00,
2013-11-16 02:49:00,58.4,49.0,29.65,South,188,5.0,10.0,72,0.00,,,0.00,0,weatherlink.com 1.10,2013-11-16 09:49:00,
2013-11-16 03:04:00,58.2,49.0,29.66,South,189,8.0,11.0,72,0.00,,,0.00,0,weatherlink.com 1.10,2013-11-16 10:04:00,
2013-11-16 03:19:00,58.4,49.0,29.66,South,188,6.0,8.0,72,0.00,,,0.00,0,weatherlink.com 1.10,2013-11-16 10:19:00,
2013-11-16 03:34:00,58.0,49.0,29.65,South,189,5.0,11.0,72,0.00,,,0.00,0,weatherlink.com 1.10,2013-11-16 10:34:00,
2013-11-16 03:49:00,57.8,49.0,29.66,South,189,0.0,9.0,73,0.00,,,0.00,0,weatherlink.com 1.10,2013-11-16 10:49:00,
2013-11-16 04:04:00,57.3,49.0,29.66,South,189,1.0,6.0,75,0.00,,,0.00,0,weatherlink.com 1.10,2013-11-16 11:04:00,
2013-11-16 04:19:00,57.0,49.0,29.67,South,189,3.0,6.0,75,0.00,,,0.00,0,weatherlink.com 1.10,2013-11-16 11:19:00,
2013-11-16 04:35:00,56.7,49.0,29.67,South,189,0.0,5.0,76,0.00,,,0.00,0,weatherlink.com 1.10,2013-11-16 11:35:00,
2013-11-16 04:50:00,56.5,50.0,29.67,South,189,5.0,6.0,78,0.00,,,0.00,0,weatherlink.com 1.10,2013-11-16 11:50:00,
2013-11-16 05:05:00,56.4,50.0,29.67,South,190,4.0,8.0,78,0.00,,,0.00,0,weatherlink.com 1.10,2013-11-16 12:05:00,
2013-11-16 05:20:00,56.3,49.0,29.68,South,190,0.0,0.0,77,0.00,,,0.00,0,weatherlink.com 1.10,2013-11-16 12:20:00,
2013-11-16 05:35:00,56.3,50.0,29.68,South,189,0.0,0.0,78,0.00,,,0.00,0,weatherlink.com 1.10,2013-11-16 12:35:00,
2013-11-16 05:50:00,56.7,49.0,29.67,South,188,1.0,9.0,76,0.00,,,0.00,0,weatherlink.com 1.10,2013-11-16 12:50:00,
2013-11-16 06:05:00,57.5,49.0,29.67,South,190,4.0,7.0,73,0.00,,,0.00,0,weatherlink.com 1.10,2013-11-16 13:05:00,
2013-11-16 06:20:00,57.8,48.0,29.67,SSW,192,4.0,7.0,71,0.00,,,0.00,0,weatherlink.com 1.10,2013-11-16 13:20:00,
2013-11-16 06:35:00,58.0,49.0,29.68,SSW,194,4.0,10.0,71,0.00,,,0.00,0,weatherlink.com 1.10,2013-11-16 13:35:00,
2013-11-16 06:50:00,57.5,49.0,29.68,SSW,194,4.0,7.0,72,0.00,,,0.00,9,weatherlink.com 1.10,2013-11-16 13:50:00,
2013-11-16 07:05:00,58.2,48.0,29.69,SSW,195,4.0,10.0,70,0.00,,,0.00,18,weatherlink.com 1.10,2013-11-16 14:05:00,
2013-11-16 07:20:00,59.0,49.0,29.69,SSW,199,5.0,7.0,69,0.00,,,0.00,72,weatherlink.com 1.10,2013-11-16 14:20:00,
2013-11-16 07:35:00,59.5,48.0,29.70,SSW,205,4.0,11.0,67,0.00,,,0.00,49,weatherlink.com 1.10,2013-11-16 14:35:00,
2013-11-16 07:50:00,59.4,49.0,29.71,SSW,202,5.0,10.0,69,0.00,,,0.00,98,weatherlink.com 1.10,2013-11-16 14:50:00,
2013-11-16 08:05:00,60.2,50.0,29.71,SSW,200,6.0,8.0,68,0.00,,,0.00,105,weatherlink.com 1.10,2013-11-16 15:05:00,
2013-11-16 08:20:00,60.1,49.0,29.72,SSW,195,7.0,12.0,67,0.00,,,0.00,116,weatherlink.com 1.10,2013-11-16 15:20:00,
2013-11-16 08:35:00,60.6,50.0,29.71,SSW,192,10.0,10.0,67,0.00,,,0.00,339,weatherlink.com 1.10,2013-11-16 15:35:00,
2013-11-16 08:50:00,61.4,50.0,29.72,SSW,192,6.0,9.0,66,0.00,,,0.00,149,weatherlink.com 1.10,2013-11-16 15:50:00,
2013-11-16 09:05:00,61.5,50.0,29.72,SSW,192,4.0,8.0,66,0.00,,,0.00,485,weatherlink.com 1.10,2013-11-16 16:05:00,
2013-11-16 09:20:00,63.2,49.0,29.72,SSW,196,7.0,13.0,61,0.00,,,0.00,385,weatherlink.com 1.10,2013-11-16 16:20:00,
2013-11-16 09:35:00,63.2,49.0,29.72,SSW,212,7.0,10.0,60,0.00,,,0.00,174,weatherlink.com 1.10,2013-11-16 16:35:00,
2013-11-16 09:50:00,64.3,49.0,29.72,SW,217,4.0,10.0,58,0.00,,,0.00,183,weatherlink.com 1.10,2013-11-16 16:50:00,
2013-11-16 10:05:00,64.5,48.0,29.72,SW,228,6.0,13.0,56,0.00,,,0.00,107,weatherlink.com 1.10,2013-11-16 17:05:00,
2013-11-16 10:20:00,66.2,49.0,29.71,SW,226,8.0,13.0,55,0.00,,,0.00,638,weatherlink.com 1.10,2013-11-16 17:20:00,
2013-11-16 10:35:00,66.0,50.0,29.70,SW,216,9.0,13.0,56,0.00,,,0.00,570,weatherlink.com 1.10,2013-11-16 17:35:00,
2013-11-16 10:50:00,67.0,50.0,29.70,SW,234,11.0,11.0,54,0.00,,,0.00,594,weatherlink.com 1.10,2013-11-16 17:50:00,
2013-11-16 11:05:00,67.9,50.0,29.69,SSW,194,7.0,12.0,53,0.00,,,0.00,761,weatherlink.com 1.10,2013-11-16 18:05:00,
2013-11-16 11:20:00,68.6,50.0,29.69,SW,219,13.0,19.0,51,0.00,,,0.00,670,weatherlink.com 1.10,2013-11-16 18:20:00,
2013-11-16 11:36:00,67.5,49.0,29.68,SW,233,7.0,16.0,51,0.00,,,0.00,169,weatherlink.com 1.10,2013-11-16 18:36:00,
2013-11-16 11:51:00,67.6,49.0,29.67,SW,225,8.0,14.0,51,0.00,,,0.00,111,weatherlink.com 1.10,2013-11-16 18:51:00,
2013-11-16 12:06:00,67.7,49.0,29.65,SW,229,6.0,12.0,51,0.00,,,0.00,603,weatherlink.com 1.10,2013-11-16 19:06:00,
2013-11-16 12:21:00,69.4,50.0,29.64,SW,217,6.0,12.0,50,0.00,,,0.00,722,weatherlink.com 1.10,2013-11-16 19:21:00,
2013-11-16 12:36:00,69.9,49.0,29.63,SW,226,2.0,14.0,48,0.00,,,0.00,643,weatherlink.com 1.10,2013-11-16 19:36:00,
2013-11-16 12:51:00,71.2,49.0,29.62,SW,219,12.0,14.0,46,0.00,,,0.00,640,weatherlink.com 1.10,2013-11-16 19:51:00,
2013-11-16 13:06:00,71.0,49.0,29.61,SSW,213,12.0,18.0,46,0.00,,,0.00,573,weatherlink.com 1.10,2013-11-16 20:06:00,
2013-11-16 13:21:00,71.2,49.0,29.60,SW,217,11.0,19.0,45,0.00,,,0.00,561,weatherlink.com 1.10,2013-11-16 20:21:00,
2013-11-16 13:36:00,71.8,49.0,29.60,South,188,13.0,18.0,44,0.00,,,0.00,529,weatherlink.com 1.10,2013-11-16 20:36:00,
2013-11-16 13:51:00,72.2,49.0,29.59,SSW,194,6.0,15.0,44,0.00,,,0.00,487,weatherlink.com 1.10,2013-11-16 20:51:00,
2013-11-16 14:06:00,71.8,49.0,29.59,SW,217,7.0,12.0,44,0.00,,,0.00,504,weatherlink.com 1.10,2013-11-16 21:06:00,
2013-11-16 14:21:00,72.6,48.0,29.59,SW,227,7.0,12.0,42,0.00,,,0.00,461,weatherlink.com 1.10,2013-11-16 21:21:00,
2013-11-16 14:36:00,72.8,47.0,29.58,SW,225,10.0,19.0,40,0.00,,,0.00,98,weatherlink.com 1.10,2013-11-16 21:36:00,
2013-11-16 14:51:00,72.2,47.0,29.58,SW,225,9.0,20.0,41,0.00,,,0.00,302,weatherlink.com 1.10,2013-11-16 21:51:00,
2013-11-16 15:06:00,73.3,47.0,29.59,SW,229,6.0,16.0,39,0.00,,,0.00,288,weatherlink.com 1.10,2013-11-16 22:06:00,
2013-11-16 15:21:00,72.9,46.0,29.58,SW,226,5.0,17.0,39,0.00,,,0.00,54,weatherlink.com 1.10,2013-11-16 22:21:00,
2013-11-16 15:36:00,72.8,46.0,29.59,SW,225,6.0,16.0,39,0.00,,,0.00,229,weatherlink.com 1.10,2013-11-16 22:36:00,
2013-11-16 15:51:00,74.0,45.0,29.59,SW,232,11.0,16.0,35,0.00,,,0.00,197,weatherlink.com 1.10,2013-11-16 22:51:00,
2013-11-16 16:06:00,74.4,43.0,29.59,WSW,244,5.0,15.0,32,0.00,,,0.00,121,weatherlink.com 1.10,2013-11-16 23:06:00,
2013-11-16 16:21:00,73.6,43.0,29.59,WSW,239,8.0,18.0,33,0.00,,,0.00,67,weatherlink.com 1.10,2013-11-16 23:21:00,
2013-11-16 16:36:00,72.8,42.0,29.59,SW,235,6.0,21.0,33,0.00,,,0.00,32,weatherlink.com 1.10,2013-11-16 23:36:00,
2013-11-16 16:51:00,72.1,42.0,29.60,SW,231,0.0,24.0,34,0.00,,,0.00,12,weatherlink.com 1.10,2013-11-16 23:51:00,
2013-11-16 17:06:00,71.5,42.0,29.60,SW,236,8.0,21.0,34,0.00,,,0.00,0,weatherlink.com 1.10,2013-11-17 00:06:00,
2013-11-16 17:21:00,70.9,42.0,29.60,SW,233,8.0,13.0,35,0.00,,,0.00,0,weatherlink.com 1.10,2013-11-17 00:21:00,
2013-11-16 17:36:00,70.5,42.0,29.61,SW,232,8.0,15.0,36,0.00,,,0.00,0,weatherlink.com 1.10,2013-11-17 00:36:00,
2013-11-16 17:51:00,70.3,43.0,29.61,SW,227,9.0,17.0,37,0.00,,,0.00,0,weatherlink.com 1.10,2013-11-17 00:51:00,
2013-11-16 18:06:00,70.1,42.0,29.62,SW,236,9.0,17.0,36,0.00,,,0.00,0,weatherlink.com 1.10,2013-11-17 01:06:00,
2013-11-16 18:21:00,69.4,42.0,29.63,WSW,239,12.0,13.0,37,0.00,,,0.00,0,weatherlink.com 1.10,2013-11-17 01:21:00,
2013-11-16 18:36:00,69.1,42.0,29.64,SW,226,8.0,14.0,38,0.00,,,0.00,0,weatherlink.com 1.10,2013-11-17 01:36:00,
2013-11-16 18:51:00,68.7,43.0,29.64,SW,229,5.0,16.0,39,0.00,,,0.00,0,weatherlink.com 1.10,2013-11-17 01:51:00,
2013-11-16 19:06:00,68.2,43.0,29.65,SW,232,0.0,13.0,40,0.00,,,0.00,0,weatherlink.com 1.10,2013-11-17 02:06:00,
2013-11-16 19:21:00,68.2,43.0,29.65,SW,227,10.0,15.0,40,0.00,,,0.00,0,weatherlink.com 1.10,2013-11-17 02:21:00,
2013-11-16 19:36:00,68.1,43.0,29.65,WSW,243,15.0,16.0,40,0.00,,,0.00,0,weatherlink.com 1.10,2013-11-17 02:36:00,
2013-11-16 19:51:00,68.0,43.0,29.65,WSW,241,9.0,20.0,40,0.00,,,0.00,0,weatherlink.com 1.10,2013-11-17 02:51:00,
2013-11-16 20:06:00,68.1,43.0,29.66,WSW,240,15.0,22.0,41,0.00,,,0.00,0,weatherlink.com 1.10,2013-11-17 03:06:00,
2013-11-16 20:21:00,67.6,44.0,29.67,SW,229,1.0,24.0,43,0.00,,,0.00,0,weatherlink.com 1.10,2013-11-17 03:21:00,
2013-11-16 20:36:00,67.0,44.0,29.68,West,265,0.0,15.0,44,0.00,,,0.00,0,weatherlink.com 1.10,2013-11-17 03:36:00,
2013-11-16 20:51:00,66.8,44.0,29.68,West,269,0.0,16.0,44,0.00,,,0.00,0,weatherlink.com 1.10,2013-11-17 03:51:00,
2013-11-16 21:06:00,66.4,44.0,29.69,WSW,241,0.0,11.0,45,0.00,,,0.00,0,weatherlink.com 1.10,2013-11-17 04:06:00,
2013-11-16 21:21:00,66.2,44.0,29.69,WSW,248,10.0,12.0,45,0.00,,,0.00,0,weatherlink.com 1.10,2013-11-17 04:21:00,
2013-11-16 21:36:00,66.1,45.0,29.70,WNW,289,0.0,15.0,46,0.00,,,0.00,0,weatherlink.com 1.10,2013-11-17 04:36:00,
2013-11-16 21:51:00,65.7,45.0,29.71,SW,236,6.0,17.0,47,0.00,,,0.00,0,weatherlink.com 1.10,2013-11-17 04:51:00,
2013-11-16 22:06:00,65.8,45.0,29.71,SW,234,9.0,15.0,47,0.00,,,0.00,0,weatherlink.com 1.10,2013-11-17 05:06:00,
2013-11-16 22:21:00,65.4,45.0,29.70,WSW,238,11.0,19.0,48,0.00,,,0.00,0,weatherlink.com 1.10,2013-11-17 05:21:00,
2013-11-16 22:36:00,65.2,45.0,29.71,WSW,238,4.0,12.0,49,0.00,,,0.00,0,weatherlink.com 1.10,2013-11-17 05:36:00,
2013-11-16 22:51:00,65.1,45.0,29.71,WSW,244,7.0,20.0,49,0.00,,,0.00,0,weatherlink.com 1.10,2013-11-17 05:51:00,
2013-11-16 23:06:00,64.8,45.0,29.72,WSW,244,0.0,11.0,49,0.00,,,0.00,0,weatherlink.com 1.10,2013-11-17 06:06:00,
2013-11-16 23:21:00,63.5,46.0,29.72,WSW,245,0.0,1.0,53,0.00,,,0.00,0,weatherlink.com 1.10,2013-11-17 06:21:00,
2013-11-16 23:36:00,62.4,46.0,29.71,WSW,248,1.0,7.0,55,0.00,,,0.00,0,weatherlink.com 1.10,2013-11-17 06:36:00,
2013-11-16 23:51:00,61.8,46.0,29.72,WSW,248,0.0,1.0,57,0.00,,,0.00,0,weatherlink.com 1.10,2013-11-17 06:51:00,